Plovdiv, Bulgaria

9:52 PM EEST on October 20, 2014 (GMT +0300)
Parvenets | Change Station
CLOSE
Current Station
Personal Weather Station
Location: Plovdiv, PLOVDIV
Elevation: 702 ft
Nearby Weather Stations

Elev 702 ft 42.08 °N, 24.67 °E | Updated 0 second ago

Partly Cloudy
Partly Cloudy
59.4 °F
Feels Like 59.4 °F
N
0.1
Wind Variable Wind from West
Gusts 0.7 mph

Today
High -- | Low -- °F
--% Chance of Precip.
Yesterday
High -- | Low -- °F
Precip. -- in
7:39 AM 6:31 PM
Waning Crescent, 9% visible
Pressure 30.06 in
Visibility 5.0 miles
Clouds Few 10000 ft
Dew Point 50 °F
Humidity 70%
Rainfall 0.00 in
Snow Depth Not available.
UV 0 out of 12
Pollen Not available.
Air Quality Not available.
Flu Activity Not available.
METAR LBPD 201800Z 00000MPS 8000 FEW100 11/07 Q1018 NOSIG

More Conditions Fewer Conditions

Pressure 30.06 in
Visibility 5.0 miles
Clouds Few 10000 ft
Dew Point 50 °F
Humidity 70%
Rainfall 0.00 in
Snow Depth Not available.
UV 0 out of 12
Pollen Not available.
Air Quality Not available.
Flu Activity Not available.
METAR LBPD 201800Z 00000MPS 8000 FEW100 11/07 Q1018 NOSIG

More Conditions Fewer Conditions

10-Day Weather Forecast

Almanac

Astronomy

Oct. 20, 2014 Rise Set
Actual Time 7:39 AM EEST 6:31 PM EEST
Civil Twilight 7:10 AM EEST 7:00 PM EEST
Nautical Twilight 6:38 AM EEST 7:32 PM EEST
Astronomical Twilight 6:05 AM EEST 8:05 PM EEST
Moon 4:06 AM EEST 4:47 PM EEST
Length of Visible Light 11h 49m
Length of Day
10h 52m
Tomorrow will be 2m 41s shorter.
Waning Crescent, 9% of the Moon is Illuminated
Today
Waning Crescent
Oct 23
New
Oct 30
First Quarter
Nov 6
Full
Nov 14
Last Quarter

Today's Extremes

Country Highs Country Lows

Community

WunderPhotos

Upload Photos

1,763,463 photos uploaded!

Nearby

Snow Depth

Not available.

Earthquake Activity

City Distance Mag. Time & Date
No recent earthquake activity has been reported nearby.
Minimum magnitude displayed is 2.5.

Coastal Water Temperatures

Place Temperature
No Stations Reporting

Nearby Weather Stations